Time;durP1;ratioP1;P1;durP2;ratioP2;P2;SDS_P1;SDS_P2;PMS_P1;PMS_P2;Temp;Humidity;BMP_temperature;BMP_pressure;BME280_temperature;BME280_humidity;BME280_pressure;Samples;Min_cycle;Max_cycle;Signal;HPM_P1;HPM_P2
2022/10/07 00:01:54;;;;;;;12.10;3.10;;;9.30;99.90;;;;;;5090354;28;20529;-62
2022/10/07 00:04:20;;;;;;;9.45;3.28;;;9.30;99.90;;;;;;5069123;28;20044;-61
2022/10/07 00:06:46;;;;;;;8.50;3.30;;;9.30;99.90;;;;;;5067569;28;20083;-63
2022/10/07 00:09:13;;;;;;;12.13;3.30;;;9.30;99.90;;;;;;5070611;28;20060;-61
2022/10/07 00:11:38;;;;;;;8.57;3.83;;;9.30;99.90;;;;;;5063446;28;20051;-63
2022/10/07 00:14:08;;;;;;;7.53;3.05;;;9.30;99.90;;;;;;5066749;28;20040;-62
2022/10/07 00:16:37;;;;;;;10.98;3.70;;;9.30;99.90;;;;;;5086426;28;20340;-62
2022/10/07 00:19:06;;;;;;;10.60;3.45;;;9.20;99.90;;;;;;5088355;28;20353;-62
2022/10/07 00:21:33;;;;;;;11.32;3.60;;;9.20;99.90;;;;;;5087306;28;20040;-62
2022/10/07 00:24:00;;;;;;;9.45;3.50;;;9.20;99.90;;;;;;5068817;28;20036;-67
2022/10/07 00:26:28;;;;;;;14.13;3.92;;;9.30;99.90;;;;;;5085658;28;20176;-62
2022/10/07 00:28:54;;;;;;;5.90;3.50;;;9.30;99.90;;;;;;5085216;28;20032;-64
2022/10/07 00:31:25;;;;;;;11.98;4.20;;;9.20;99.90;;;;;;5062593;28;20181;-62
2022/10/07 00:33:52;;;;;;;9.25;3.42;;;9.20;99.90;;;;;;5074236;28;20051;-62
2022/10/07 00:36:22;;;;;;;7.97;3.67;;;9.20;99.90;;;;;;5061540;28;20089;-62
2022/10/07 00:38:55;;;;;;;10.73;3.67;;;9.20;99.90;;;;;;5061965;28;20108;-62
2022/10/07 00:41:25;;;;;;;8.38;3.60;;;9.30;99.90;;;;;;5085467;28;20302;-62
2022/10/07 00:43:51;;;;;;;10.48;3.60;;;9.30;99.90;;;;;;5057569;28;20139;-62
2022/10/07 00:46:34;;;;;;;6.65;3.70;;;9.20;99.90;;;;;;5086332;28;20048;-63
2022/10/07 00:49:08;;;;;;;8.38;4.28;;;9.20;99.90;;;;;;5083620;28;20047;-62
2022/10/07 00:51:35;;;;;;;8.30;3.70;;;9.20;99.90;;;;;;5075953;28;20047;-63
2022/10/07 00:54:04;;;;;;;7.75;3.50;;;9.10;99.90;;;;;;5086558;28;20048;-63
2022/10/07 00:56:30;;;;;;;9.60;3.92;;;9.10;99.90;;;;;;5084301;28;20079;-63
2022/10/07 00:58:58;;;;;;;10.43;3.72;;;9.10;99.90;;;;;;5079170;28;20086;-62
2022/10/07 01:01:24;;;;;;;8.45;3.88;;;9.10;99.90;;;;;;5077536;28;20698;-62
2022/10/07 01:03:52;;;;;;;10.57;3.42;;;9.10;99.90;;;;;;5082603;28;20505;-62
2022/10/07 01:06:17;;;;;;;9.25;4.20;;;9.10;99.90;;;;;;5084889;28;20118;-62
2022/10/07 01:08:46;;;;;;;14.90;4.75;;;9.10;99.90;;;;;;5050710;28;20083;-62
2022/10/07 01:11:14;;;;;;;9.13;3.83;;;9.00;99.90;;;;;;5060603;28;20051;-63
2022/10/07 01:14:04;;;;;;;7.95;4.22;;;9.10;99.90;;;;;;5076541;28;20430;-63
2022/10/07 01:16:41;;;;;;;9.68;4.20;;;9.00;99.90;;;;;;5080648;28;20067;-62
2022/10/07 01:19:28;;;;;;;7.55;3.67;;;9.00;99.90;;;;;;5083903;28;20062;-62
2022/10/07 01:22:19;;;;;;;13.50;3.72;;;9.00;99.90;;;;;;5063327;28;20135;-62
2022/10/07 01:25:20;;;;;;;8.95;3.78;;;8.90;99.90;;;;;;5086025;28;20082;-62
2022/10/07 01:27:51;;;;;;;10.35;4.20;;;8.90;99.90;;;;;;5064900;28;20267;-62
2022/10/07 01:30:18;;;;;;;11.18;3.72;;;8.90;99.90;;;;;;5080408;28;20032;-62
2022/10/07 01:32:53;;;;;;;9.20;4.00;;;8.90;99.90;;;;;;5085566;28;20064;-62
2022/10/07 01:35:24;;;;;;;10.27;3.78;;;8.90;99.90;;;;;;5084736;28;20032;-62
2022/10/07 01:37:54;;;;;;;13.85;4.03;;;8.90;99.90;;;;;;5069990;28;20048;-62
2022/10/07 01:40:24;;;;;;;10.90;4.30;;;8.90;99.90;;;;;;5085601;28;20047;-62
2022/10/07 01:42:50;;;;;;;9.98;4.15;;;8.90;99.90;;;;;;5079003;28;20123;-62
2022/10/07 01:45:20;;;;;;;8.35;4.38;;;8.90;99.90;;;;;;5065042;28;20045;-62
2022/10/07 01:47:50;;;;;;;12.67;4.20;;;8.90;99.90;;;;;;5060150;28;20127;-62
2022/10/07 01:50:18;;;;;;;13.23;4.05;;;8.90;99.90;;;;;;5076842;28;20282;-62
2022/10/07 01:52:50;;;;;;;6.47;3.15;;;9.00;99.90;;;;;;5082951;28;20569;-62
2022/10/07 01:55:43;;;;;;;11.00;4.22;;;9.00;99.90;;;;;;5076605;28;20531;-62
2022/10/07 01:58:46;;;;;;;11.90;4.05;;;8.90;99.90;;;;;;5059109;28;20044;-62
2022/10/07 02:01:36;;;;;;;9.82;4.00;;;9.00;99.90;;;;;;5060766;28;20590;-62
2022/10/07 02:04:33;;;;;;;8.18;3.65;;;8.90;99.90;;;;;;5085659;28;20061;-62
2022/10/07 02:07:27;;;;;;;12.70;3.97;;;9.00;99.90;;;;;;5078144;28;20044;-62
2022/10/07 02:10:06;;;;;;;12.25;3.53;;;9.00;99.90;;;;;;5081286;28;20412;-63
2022/10/07 02:12:44;;;;;;;8.80;3.80;;;9.00;99.90;;;;;;5072540;28;20047;-63
2022/10/07 02:15:18;;;;;;;12.13;4.00;;;9.10;99.90;;;;;;5062986;28;20040;-62
2022/10/07 02:17:53;;;;;;;13.43;3.83;;;9.10;99.90;;;;;;5084840;28;20349;-62
2022/10/07 02:20:23;;;;;;;9.85;3.80;;;9.10;99.90;;;;;;5062842;28;20134;-63
2022/10/07 02:22:51;;;;;;;13.82;4.35;;;9.00;99.90;;;;;;5074425;28;20048;-62
2022/10/07 02:25:19;;;;;;;11.57;4.10;;;8.90;99.90;;;;;;5079435;28;20115;-62
2022/10/07 02:27:49;;;;;;;12.95;4.25;;;8.90;99.90;;;;;;5076011;28;20177;-62
2022/10/07 02:30:17;;;;;;;9.20;3.80;;;8.90;99.90;;;;;;5082439;28;20126;-62
2022/10/07 02:32:52;;;;;;;10.10;3.80;;;8.90;99.90;;;;;;5083010;28;20036;-63
2022/10/07 02:35:44;;;;;;;14.38;4.07;;;8.90;99.90;;;;;;5079839;28;20032;-62
2022/10/07 02:38:12;;;;;;;13.65;4.18;;;8.80;99.90;;;;;;5053214;28;20035;-62
2022/10/07 02:40:44;;;;;;;14.73;4.18;;;8.80;99.90;;;;;;5042674;28;20344;-63
2022/10/07 02:43:35;;;;;;;13.77;4.63;;;8.80;99.90;;;;;;5082347;28;20619;-62
2022/10/07 02:46:08;;;;;;;14.30;3.88;;;8.80;99.90;;;;;;5082529;28;20482;-62
2022/10/07 02:48:40;;;;;;;10.40;3.90;;;8.80;99.90;;;;;;5085893;28;20151;-62
2022/10/07 02:51:14;;;;;;;8.95;3.67;;;8.70;99.90;;;;;;5088493;28;20112;-62
2022/10/07 02:53:40;;;;;;;9.00;3.08;;;8.70;99.90;;;;;;5064368;28;20052;-63
2022/10/07 02:56:06;;;;;;;10.23;3.83;;;8.60;99.90;;;;;;5079131;28;20074;-62
2022/10/07 02:58:34;;;;;;;11.23;3.85;;;8.50;99.90;;;;;;5084730;28;20097;-62
2022/10/07 03:01:01;;;;;;;11.95;3.85;;;8.50;99.90;;;;;;5085059;28;20048;-62
2022/10/07 03:03:27;;;;;;;10.25;3.83;;;8.50;99.90;;;;;;5064272;28;20092;-63
2022/10/07 03:05:53;;;;;;;11.32;3.45;;;8.50;99.90;;;;;;5086617;28;20043;-62
2022/10/07 03:08:20;;;;;;;10.50;4.03;;;8.50;99.90;;;;;;5087432;28;20128;-62
2022/10/07 03:10:46;;;;;;;13.13;4.03;;;8.50;99.90;;;;;;5084348;28;20042;-63
2022/10/07 03:13:14;;;;;;;7.10;3.45;;;8.40;99.90;;;;;;5081064;28;20527;-62
2022/10/07 03:15:40;;;;;;;14.18;4.45;;;8.50;99.90;;;;;;5061289;28;20044;-61
2022/10/07 03:18:06;;;;;;;13.90;4.38;;;8.40;99.90;;;;;;5061269;28;20040;-62
2022/10/07 03:20:32;;;;;;;12.93;4.25;;;8.40;99.90;;;;;;5081916;28;20128;-63
2022/10/07 03:22:58;;;;;;;11.13;4.13;;;8.30;99.90;;;;;;5083791;28;20570;-62
2022/10/07 03:25:25;;;;;;;10.98;4.18;;;8.30;99.90;;;;;;5089807;28;20043;-61
2022/10/07 03:27:53;;;;;;;9.25;3.95;;;8.30;99.90;;;;;;5087073;28;20085;-61
2022/10/07 03:30:21;;;;;;;15.80;4.18;;;8.30;99.90;;;;;;5086634;28;20040;-63
2022/10/07 03:32:48;;;;;;;13.63;4.55;;;8.30;99.90;;;;;;5088338;28;20437;-62
2022/10/07 03:35:14;;;;;;;14.30;4.40;;;8.40;99.90;;;;;;5087441;28;20036;-62
2022/10/07 03:37:39;;;;;;;13.57;4.50;;;8.30;99.90;;;;;;5068254;28;20072;-62
2022/10/07 03:40:05;;;;;;;12.27;4.95;;;8.30;99.90;;;;;;5087572;28;20059;-62
2022/10/07 03:42:31;;;;;;;13.05;4.68;;;8.30;99.90;;;;;;5080297;28;20100;-62
2022/10/07 03:44:56;;;;;;;13.43;4.53;;;8.30;99.90;;;;;;5066486;28;20033;-62
2022/10/07 03:47:22;;;;;;;12.68;4.50;;;8.40;99.90;;;;;;5089056;28;20493;-62
2022/10/07 03:49:48;;;;;;;11.90;4.90;;;8.30;99.90;;;;;;5087056;28;20130;-62
2022/10/07 03:52:13;;;;;;;16.23;5.10;;;8.30;99.90;;;;;;5062524;28;20055;-62
2022/10/07 03:54:39;;;;;;;12.63;4.72;;;8.30;99.90;;;;;;5064984;28;20044;-62
2022/10/07 03:57:48;;;;;;;16.42;5.43;;;8.30;99.90;;;;;;5078941;28;20052;-62
2022/10/07 03:59:52;;;;;;;9.88;4.68;;;8.40;99.90;;;;;;5080909;28;20043;-62
2022/10/07 04:02:20;;;;;;;13.35;5.53;;;8.30;99.90;;;;;;5083001;28;20040;-62
2022/10/07 04:04:45;;;;;;;9.43;4.65;;;8.40;99.90;;;;;;5087450;28;20044;-62
2022/10/07 04:07:11;;;;;;;9.52;4.63;;;8.30;99.90;;;;;;5082001;28;20036;-62
2022/10/07 04:09:36;;;;;;;12.73;4.38;;;8.30;99.90;;;;;;5087453;28;20062;-62
2022/10/07 04:12:03;;;;;;;14.15;5.63;;;8.40;99.90;;;;;;5082710;28;20046;-62
2022/10/07 04:14:28;;;;;;;11.98;5.10;;;8.30;99.90;;;;;;5082564;28;20052;-62
2022/10/07 04:16:54;;;;;;;15.27;4.93;;;8.40;99.90;;;;;;5078948;28;20047;-62
2022/10/07 04:19:19;;;;;;;20.63;5.50;;;8.30;99.90;;;;;;5083619;28;20149;-62
2022/10/07 04:21:45;;;;;;;13.52;5.13;;;8.40;99.90;;;;;;5080284;28;20056;-62
2022/10/07 04:24:10;;;;;;;16.35;5.35;;;8.40;99.90;;;;;;5078047;28;20040;-61
2022/10/07 04:26:36;;;;;;;18.33;4.90;;;8.40;99.90;;;;;;5074915;28;20100;-63
2022/10/07 04:29:01;;;;;;;12.55;5.18;;;8.40;99.90;;;;;;5080393;28;20122;-62
2022/10/07 04:31:27;;;;;;;11.88;4.80;;;8.50;99.90;;;;;;5066996;28;20152;-62
2022/10/07 04:33:53;;;;;;;15.13;5.28;;;8.50;99.90;;;;;;5085939;28;20064;-63
2022/10/07 04:36:18;;;;;;;13.30;6.07;;;8.50;99.90;;;;;;5080238;28;20055;-63
2022/10/07 04:38:49;;;;;;;16.23;5.90;;;8.50;99.90;;;;;;5083184;28;20040;-63
2022/10/07 04:41:15;;;;;;;21.33;4.78;;;8.50;99.90;;;;;;5063972;28;20043;-62
2022/10/07 04:43:40;;;;;;;16.30;5.65;;;8.50;99.90;;;;;;5058820;28;20395;-63
2022/10/07 04:46:08;;;;;;;11.73;4.93;;;8.50;99.90;;;;;;5060096;28;20036;-63
2022/10/07 04:48:34;;;;;;;10.50;4.85;;;8.50;99.90;;;;;;5078270;28;20114;-62
2022/10/07 04:51:08;;;;;;;18.65;5.25;;;8.50;99.90;;;;;;5065720;28;20044;-62
2022/10/07 04:53:35;;;;;;;15.10;5.32;;;8.50;99.90;;;;;;5079212;28;20069;-62
2022/10/07 04:56:01;;;;;;;18.33;6.32;;;8.40;99.90;;;;;;5080370;28;20052;-62
2022/10/07 04:58:28;;;;;;;14.63;5.35;;;8.40;99.90;;;;;;5082625;28;20126;-62
2022/10/07 05:00:55;;;;;;;18.55;5.70;;;8.40;99.90;;;;;;5064358;28;20040;-61
2022/10/07 05:03:22;;;;;;;16.38;5.70;;;8.50;99.90;;;;;;5062252;28;20040;-63
2022/10/07 05:05:50;;;;;;;11.65;5.50;;;8.50;99.90;;;;;;5079266;28;20040;-62
2022/10/07 05:08:18;;;;;;;13.43;5.55;;;8.50;99.90;;;;;;5086291;28;20448;-61
2022/10/07 05:10:44;;;;;;;16.73;6.00;;;8.50;99.90;;;;;;5083978;28;20090;-62
2022/10/07 05:13:13;;;;;;;16.13;6.38;;;8.50;99.90;;;;;;5043087;28;20058;-61
2022/10/07 05:15:49;;;;;;;16.23;6.40;;;8.50;99.90;;;;;;5082373;28;20555;-62
2022/10/07 05:18:17;;;;;;;16.60;6.32;;;8.50;99.90;;;;;;5060483;28;20058;-63
2022/10/07 05:20:45;;;;;;;14.68;5.65;;;8.50;99.90;;;;;;5082840;28;20044;-63
2022/10/07 05:23:11;;;;;;;13.40;5.97;;;8.50;99.90;;;;;;5084504;28;20090;-63
2022/10/07 05:25:37;;;;;;;17.65;6.10;;;8.50;99.90;;;;;;5066355;28;20043;-63
2022/10/07 05:28:02;;;;;;;19.08;6.43;;;8.50;99.90;;;;;;5080048;28;20452;-62
2022/10/07 05:30:28;;;;;;;15.50;6.20;;;8.50;99.90;;;;;;5085532;28;20036;-62
2022/10/07 05:32:54;;;;;;;20.17;6.00;;;8.50;99.90;;;;;;5082392;28;20043;-62
2022/10/07 05:35:20;;;;;;;15.70;6.07;;;8.50;99.90;;;;;;5086428;28;20120;-62
2022/10/07 05:37:46;;;;;;;18.77;6.53;;;8.50;99.90;;;;;;5063136;28;20052;-62
2022/10/07 05:40:12;;;;;;;17.35;6.75;;;8.40;99.90;;;;;;5086801;28;20063;-63
2022/10/07 05:42:38;;;;;;;20.27;6.78;;;8.40;99.90;;;;;;5063662;28;20055;-63
2022/10/07 05:45:04;;;;;;;17.95;5.72;;;8.40;99.90;;;;;;5083421;28;20037;-63
2022/10/07 05:47:32;;;;;;;14.77;6.30;;;8.40;99.90;;;;;;5066603;28;20056;-63
2022/10/07 05:49:58;;;;;;;15.30;5.75;;;8.50;99.90;;;;;;5085770;28;20122;-62
2022/10/07 05:52:23;;;;;;;19.92;6.18;;;8.50;99.90;;;;;;5080442;28;20126;-62
2022/10/07 05:54:50;;;;;;;15.98;6.53;;;8.50;99.90;;;;;;5078640;28;20499;-62
2022/10/07 05:57:16;;;;;;;16.42;6.03;;;8.50;99.90;;;;;;5081031;28;20132;-63
2022/10/07 05:59:42;;;;;;;14.82;6.13;;;8.50;99.90;;;;;;5083249;28;20048;-64
2022/10/07 06:02:18;;;;;;;15.05;5.88;;;8.50;99.90;;;;;;5066840;28;20040;-62
2022/10/07 06:04:47;;;;;;;23.35;6.50;;;8.50;99.90;;;;;;5061196;28;20131;-68
2022/10/07 06:07:14;;;;;;;15.75;6.00;;;8.50;99.90;;;;;;5081376;28;20037;-63
2022/10/07 06:15:09;;;;;;;21.38;5.93;;;8.60;99.90;;;;;;5057930;28;20052;-62
2022/10/07 06:17:36;;;;;;;20.40;6.13;;;8.60;99.90;;;;;;5062406;28;20058;-62
2022/10/07 06:20:02;;;;;;;16.92;6.97;;;8.60;99.90;;;;;;5072560;28;20043;-62
2022/10/07 06:22:28;;;;;;;23.83;7.32;;;8.60;99.90;;;;;;5087431;28;20064;-62
2022/10/07 06:24:57;;;;;;;15.35;5.70;;;8.70;99.90;;;;;;5086869;28;20071;-62
2022/10/07 06:27:23;;;;;;;13.38;5.80;;;8.70;99.90;;;;;;5078589;28;20146;-63
2022/10/07 06:29:49;;;;;;;14.52;6.13;;;8.80;99.90;;;;;;5066203;28;20059;-62
2022/10/07 06:32:15;;;;;;;16.00;5.88;;;8.80;99.90;;;;;;5084891;28;20071;-61
2022/10/07 06:34:40;;;;;;;16.25;5.40;;;8.90;99.90;;;;;;5083138;28;20072;-63
2022/10/07 06:37:06;;;;;;;18.27;6.47;;;8.90;99.90;;;;;;5080162;28;20047;-62
2022/10/07 06:39:31;;;;;;;14.20;5.88;;;9.00;99.90;;;;;;5080674;28;20044;-62
2022/10/07 06:41:57;;;;;;;16.52;5.65;;;9.10;99.90;;;;;;5080877;28;20036;-62
2022/10/07 06:44:22;;;;;;;21.95;6.57;;;9.10;99.90;;;;;;5082844;28;20036;-63
2022/10/07 06:46:48;;;;;;;21.60;6.10;;;9.10;99.90;;;;;;5084249;28;20400;-63
2022/10/07 06:49:13;;;;;;;16.60;5.65;;;9.20;99.90;;;;;;5083887;28;20043;-63
2022/10/07 06:51:39;;;;;;;19.60;6.00;;;9.20;99.90;;;;;;5086130;28;20063;-62
2022/10/07 06:54:04;;;;;;;12.65;5.60;;;9.30;99.90;;;;;;5085894;28;20039;-63
2022/10/07 06:56:30;;;;;;;14.40;5.55;;;9.50;99.90;;;;;;5055445;28;20056;-63
2022/10/07 06:58:56;;;;;;;16.63;5.70;;;9.70;99.90;;;;;;5082068;28;20078;-63
2022/10/07 07:01:21;;;;;;;17.20;5.47;;;9.90;99.90;;;;;;5080595;28;20047;-64
2022/10/07 07:03:47;;;;;;;15.07;5.57;;;9.80;99.90;;;;;;5065558;28;20430;-62
2022/10/07 07:06:13;;;;;;;15.88;4.93;;;9.80;99.90;;;;;;5058779;28;20086;-63
2022/10/07 07:08:40;;;;;;;16.75;5.10;;;10.00;99.90;;;;;;5061834;28;20488;-63
2022/10/07 07:13:55;;;;;;;13.30;4.78;;;10.40;99.90;;;;;;5082313;28;20450;-64
2022/10/07 07:16:21;;;;;;;17.55;5.10;;;10.50;99.90;;;;;;5090777;28;20074;-63
2022/10/07 07:18:54;;;;;;;10.73;4.25;;;10.60;99.90;;;;;;5088456;28;20040;-63
2022/10/07 07:21:21;;;;;;;19.40;5.53;;;10.80;99.90;;;;;;5090457;28;20477;-63
2022/10/07 07:23:46;;;;;;;20.48;5.20;;;11.10;99.90;;;;;;5068052;28;20059;-63
2022/10/07 07:26:13;;;;;;;11.52;4.20;;;11.20;99.90;;;;;;5067895;28;20420;-63
2022/10/07 07:28:38;;;;;;;12.23;4.40;;;11.20;99.90;;;;;;5062016;28;20577;-63
2022/10/07 07:31:09;;;;;;;16.27;4.50;;;11.30;99.90;;;;;;5081250;28;20120;-63
2022/10/07 07:33:39;;;;;;;19.50;5.18;;;11.60;99.90;;;;;;5067300;28;20151;-63
2022/10/07 07:36:14;;;;;;;14.20;4.32;;;11.80;99.90;;;;;;5065546;28;20084;-68
2022/10/07 07:38:41;;;;;;;16.63;4.43;;;12.00;99.90;;;;;;5066641;28;20055;-63
2022/10/07 07:41:07;;;;;;;16.42;4.13;;;12.10;99.90;;;;;;5060907;28;20036;-62
2022/10/07 07:43:32;;;;;;;11.50;4.03;;;12.40;99.90;;;;;;5083596;28;20124;-63
2022/10/07 07:45:58;;;;;;;18.23;4.55;;;12.40;99.90;;;;;;5079841;28;20040;-63
2022/10/07 07:48:23;;;;;;;14.82;3.72;;;12.30;99.90;;;;;;5082458;28;20072;-62
2022/10/07 07:50:49;;;;;;;13.32;4.15;;;12.20;99.90;;;;;;5072092;28;20043;-62
2022/10/07 07:53:14;;;;;;;15.10;4.10;;;12.10;99.90;;;;;;5078203;28;20032;-62
2022/10/07 07:55:54;;;;;;;11.52;4.00;;;11.90;99.90;;;;;;5088798;28;20043;-63
2022/10/07 07:58:20;;;;;;;11.67;4.13;;;11.90;99.90;;;;;;5083892;28;20040;-62
2022/10/07 08:00:57;;;;;;;10.85;3.90;;;11.80;99.90;;;;;;5082295;28;20294;-63
2022/10/07 08:03:24;;;;;;;11.88;4.30;;;12.00;99.90;;;;;;5091371;28;20044;-62
2022/10/07 08:05:49;;;;;;;14.80;4.28;;;12.00;99.90;;;;;;5088973;28;20189;-62
2022/10/07 08:08:15;;;;;;;11.10;4.13;;;12.10;99.90;;;;;;5074308;28;20588;-63
2022/10/07 08:10:41;;;;;;;14.30;4.03;;;12.20;99.90;;;;;;5085005;28;20048;-63
2022/10/07 08:13:08;;;;;;;12.77;3.60;;;12.20;99.90;;;;;;5080307;28;20040;-62
2022/10/07 08:15:34;;;;;;;14.35;3.53;;;12.40;99.90;;;;;;5086234;28;20464;-63
2022/10/07 08:18:00;;;;;;;8.85;3.90;;;12.40;99.90;;;;;;5076962;28;20040;-62
2022/10/07 08:20:26;;;;;;;14.60;4.28;;;12.50;99.90;;;;;;5075531;28;20063;-62
2022/10/07 08:22:52;;;;;;;11.27;4.13;;;12.60;99.90;;;;;;5080011;28;20032;-63
2022/10/07 08:25:17;;;;;;;12.77;4.40;;;12.70;99.90;;;;;;5061719;28;20154;-63
2022/10/07 08:27:43;;;;;;;11.20;3.78;;;12.90;99.90;;;;;;5069756;28;20029;-62
2022/10/07 08:30:09;;;;;;;11.45;3.38;;;13.10;99.90;;;;;;5078403;28;20039;-62
2022/10/07 08:32:34;;;;;;;12.25;3.55;;;13.40;99.90;;;;;;5087983;28;20141;-62
2022/10/07 08:35:00;;;;;;;10.02;2.80;;;13.40;99.90;;;;;;5081645;28;20147;-62
2022/10/07 08:37:25;;;;;;;15.90;3.50;;;13.30;99.90;;;;;;5083807;28;20044;-62
2022/10/07 08:39:51;;;;;;;12.25;3.33;;;13.20;99.90;;;;;;5088239;28;20094;-63
2022/10/07 08:42:37;;;;;;;12.55;3.10;;;13.40;99.90;;;;;;5085544;28;20044;-63
2022/10/07 08:45:07;;;;;;;15.20;2.92;;;13.40;99.90;;;;;;5088983;28;20046;-63
2022/10/07 08:47:33;;;;;;;11.85;2.88;;;13.40;99.90;;;;;;5086499;28;21641;-62
2022/10/07 08:50:06;;;;;;;12.45;3.45;;;13.50;99.90;;;;;;5069401;28;20082;-64
2022/10/07 08:52:38;;;;;;;11.60;3.08;;;13.50;99.90;;;;;;5061327;28;20162;-63
2022/10/07 08:55:20;;;;;;;11.95;3.03;;;13.60;99.90;;;;;;5084156;28;20040;-64
2022/10/07 08:58:08;;;;;;;15.93;3.35;;;13.70;99.90;;;;;;5082629;28;20132;-62
2022/10/07 09:00:45;;;;;;;10.30;2.55;;;13.90;99.90;;;;;;5088496;28;20405;-63
2022/10/07 09:03:25;;;;;;;11.63;3.10;;;14.00;99.90;;;;;;5069016;28;20035;-63
2022/10/07 09:05:52;;;;;;;;;;;14.00;99.90;;;;;;5068288;28;20032;-63
2022/10/07 09:08:31;;;;;;;12.57;3.40;;;14.00;99.90;;;;;;5087139;28;19923;-62
2022/10/07 09:11:14;;;;;;;11.73;3.00;;;14.10;99.90;;;;;;5050833;28;20040;-63
2022/10/07 09:13:45;;;;;;;13.38;2.78;;;14.00;99.90;;;;;;5050554;28;20197;-63
2022/10/07 09:16:25;;;;;;;16.30;3.72;;;14.10;99.90;;;;;;5059469;28;20092;-64
2022/10/07 09:18:58;;;;;;;10.73;2.83;;;14.20;99.90;;;;;;5088528;28;20047;-63
2022/10/07 09:21:35;;;;;;;10.93;2.78;;;14.30;99.90;;;;;;5081470;28;20047;-63
2022/10/07 09:24:18;;;;;;;9.02;2.85;;;14.40;99.90;;;;;;5086822;28;20216;-62
2022/10/07 09:26:44;;;;;;;10.40;2.75;;;14.60;99.90;;;;;;5081379;28;20119;-62
2022/10/07 09:29:10;;;;;;;15.18;2.45;;;14.60;99.90;;;;;;5084874;28;20122;-64
2022/10/07 09:31:36;;;;;;;17.40;3.13;;;14.70;99.90;;;;;;5081952;28;20222;-62
2022/10/07 09:34:02;;;;;;;9.15;3.58;;;14.70;99.90;;;;;;5083836;28;20036;-63
2022/10/07 09:36:28;;;;;;;13.32;3.00;;;14.70;99.90;;;;;;5082203;28;20051;-63
2022/10/07 09:38:53;;;;;;;10.95;2.83;;;14.90;99.90;;;;;;5089082;28;20054;-63
2022/10/07 09:41:34;;;;;;;12.95;2.63;;;14.90;99.90;;;;;;5086900;28;20182;-64
2022/10/07 09:44:05;;;;;;;11.50;2.90;;;15.00;99.90;;;;;;5056594;28;20398;-64
2022/10/07 09:46:34;;;;;;;11.45;2.53;;;15.20;99.90;;;;;;5087774;28;20048;-64
2022/10/07 09:49:03;;;;;;;12.63;2.63;;;15.20;99.90;;;;;;5071374;28;20044;-64
2022/10/07 09:51:29;;;;;;;8.80;2.50;;;15.30;99.90;;;;;;5080566;28;20468;-64
2022/10/07 09:54:01;;;;;;;9.10;2.67;;;15.50;99.90;;;;;;5069881;28;20044;-63
2022/10/07 09:56:46;;;;;;;12.55;2.72;;;15.70;99.90;;;;;;5072873;28;20088;-63
2022/10/07 09:59:19;;;;;;;16.13;3.40;;;15.90;99.90;;;;;;5082732;28;20040;-63
2022/10/07 10:01:49;;;;;;;11.82;2.53;;;15.90;99.90;;;;;;5065824;28;20040;-63
2022/10/07 10:04:19;;;;;;;13.50;3.13;;;15.90;99.90;;;;;;5088528;28;20044;-63
2022/10/07 10:06:50;;;;;;;18.58;2.83;;;15.90;99.90;;;;;;5064781;28;20043;-64
2022/10/07 10:09:22;;;;;;;18.48;3.20;;;15.90;99.90;;;;;;5072961;28;20109;-63
2022/10/07 10:12:13;;;;;;;12.55;2.90;;;15.90;99.90;;;;;;5069793;28;20044;-63
2022/10/07 10:14:59;;;;;;;9.35;2.60;;;15.90;99.90;;;;;;5083715;28;20040;-63
2022/10/07 10:17:30;;;;;;;11.20;2.85;;;15.90;99.90;;;;;;5072977;28;20087;-64
2022/10/07 10:20:18;;;;;;;13.60;2.55;;;15.80;99.90;;;;;;5093647;28;20040;-63
2022/10/07 10:22:44;;;;;;;13.20;2.70;;;15.90;99.90;;;;;;5083547;28;20109;-63
2022/10/07 10:28:22;;;;;;;13.32;2.97;;;16.30;99.90;;;;;;5070007;28;20045;-63
2022/10/07 10:30:55;;;;;;;14.75;2.83;;;16.50;99.90;;;;;;5067172;28;20028;-63
2022/10/07 10:33:39;;;;;;;11.73;2.53;;;16.50;99.90;;;;;;5072290;28;20047;-63
2022/10/07 10:36:21;;;;;;;12.80;2.38;;;16.70;99.90;;;;;;5063247;28;20135;-63
2022/10/07 10:39:23;;;;;;;11.05;2.47;;;16.80;99.90;;;;;;5072400;28;20187;-62
2022/10/07 10:41:55;;;;;;;17.13;3.17;;;16.80;99.90;;;;;;5081851;28;20055;-63
2022/10/07 10:44:38;;;;;;;12.50;2.60;;;17.00;99.90;;;;;;5090085;28;20047;-63
2022/10/07 10:47:28;;;;;;;11.88;2.00;;;17.30;99.90;;;;;;5078933;28;20047;-62
2022/10/07 10:50:05;;;;;;;9.48;2.35;;;17.50;99.90;;;;;;5067214;28;20050;-63
2022/10/07 10:52:48;;;;;;;12.80;2.90;;;17.30;99.90;;;;;;5064178;28;20049;-63
2022/10/07 10:55:26;;;;;;;13.23;2.63;;;17.40;99.90;;;;;;5066911;28;20151;-63
2022/10/07 10:58:26;;;;;;;11.32;2.35;;;17.30;99.90;;;;;;5082969;28;20190;-63
2022/10/07 11:01:01;;;;;;;13.70;2.65;;;17.10;99.90;;;;;;5084226;28;20150;-64
2022/10/07 11:03:43;;;;;;;11.13;2.22;;;17.20;99.90;;;;;;5080182;28;20127;-63
2022/10/07 11:06:13;;;;;;;7.18;2.33;;;17.40;99.90;;;;;;5079397;28;20445;-64
2022/10/07 11:08:40;;;;;;;11.23;2.40;;;17.40;99.90;;;;;;5056181;28;20048;-63
2022/10/07 11:11:18;;;;;;;9.50;2.17;;;17.30;99.90;;;;;;5069934;28;20044;-63
2022/10/07 11:13:53;;;;;;;9.40;2.38;;;17.30;99.90;;;;;;5078439;28;20335;-64
2022/10/07 11:16:29;;;;;;;11.55;1.98;;;17.40;99.90;;;;;;5060058;28;20078;-63
2022/10/07 11:19:05;;;;;;;16.83;2.60;;;17.40;99.90;;;;;;5078605;28;20036;-63
2022/10/07 11:21:39;;;;;;;6.85;1.85;;;17.60;99.90;;;;;;5060347;28;20047;-64
2022/10/07 11:24:16;;;;;;;12.35;2.00;;;17.70;99.90;;;;;;5085614;28;20107;-63
2022/10/07 11:26:46;;;;;;;12.18;2.45;;;17.60;99.90;;;;;;5076828;28;20112;-63
2022/10/07 11:29:40;;;;;;;8.07;1.95;;;17.60;99.90;;;;;;5086289;28;20143;-63
2022/10/07 11:32:33;;;;;;;9.25;1.95;;;17.80;99.90;;;;;;5085801;28;20067;-63
2022/10/07 11:35:22;;;;;;;8.15;2.03;;;17.80;99.90;;;;;;5070211;28;20092;-63
2022/10/07 11:38:19;;;;;;;7.65;2.33;;;17.80;99.90;;;;;;5056115;28;20059;-64
2022/10/07 11:41:07;;;;;;;10.90;2.40;;;17.70;99.90;;;;;;5073512;28;20052;-64
2022/10/07 11:43:37;;;;;;;8.48;2.40;;;17.80;99.90;;;;;;5079058;28;20052;-63
2022/10/07 11:46:27;;;;;;;9.73;2.35;;;17.70;99.90;;;;;;5065859;28;20143;-64
2022/10/07 11:49:03;;;;;;;8.63;2.20;;;17.70;99.90;;;;;;5084473;28;20109;-63
2022/10/07 11:51:50;;;;;;;11.82;2.13;;;17.70;99.90;;;;;;5060196;28;20036;-62
2022/10/07 11:54:19;;;;;;;8.43;1.80;;;17.60;99.90;;;;;;5089855;28;20135;-64
2022/10/07 11:56:49;;;;;;;9.68;2.75;;;17.70;99.90;;;;;;5084537;28;20163;-62
2022/10/07 11:59:44;;;;;;;9.88;2.40;;;17.60;99.90;;;;;;5088936;28;20797;-62
2022/10/07 12:02:28;;;;;;;9.50;2.30;;;17.50;99.90;;;;;;5086950;28;20375;-63
2022/10/07 12:04:56;;;;;;;12.20;2.45;;;17.40;99.90;;;;;;5085334;28;20132;-64
2022/10/07 12:07:31;;;;;;;6.82;2.10;;;17.50;99.90;;;;;;5064945;28;20185;-62
2022/10/07 12:10:02;;;;;;;8.45;2.10;;;17.60;99.90;;;;;;5089464;28;20139;-63
2022/10/07 12:12:45;;;;;;;11.98;2.50;;;17.80;99.90;;;;;;5078645;28;20051;-63
2022/10/07 12:15:38;;;;;;;8.68;2.35;;;17.70;99.90;;;;;;5083836;28;20047;-63
2022/10/07 12:18:04;;;;;;;12.18;2.85;;;17.70;99.90;;;;;;5064262;28;20055;-62
2022/10/07 12:20:41;;;;;;;13.75;3.25;;;17.80;99.90;;;;;;5063948;28;20028;-63
2022/10/07 12:23:17;;;;;;;12.50;2.42;;;17.80;99.90;;;;;;5081912;28;20043;-63
2022/10/07 12:25:53;;;;;;;10.85;2.45;;;17.70;99.90;;;;;;5080715;28;20051;-63
2022/10/07 12:28:47;;;;;;;13.88;2.13;;;17.80;99.90;;;;;;5078087;28;20063;-62
2022/10/07 12:31:16;;;;;;;11.95;2.42;;;17.70;99.90;;;;;;5082890;28;20136;-62
2022/10/07 12:33:45;;;;;;;9.65;2.20;;;17.70;99.90;;;;;;5081148;28;20503;-63
2022/10/07 12:36:22;;;;;;;8.00;2.13;;;17.60;99.90;;;;;;5088147;28;20364;-64
2022/10/07 12:38:59;;;;;;;5.95;2.10;;;17.50;99.90;;;;;;5085807;28;20157;-63
2022/10/07 12:41:26;;;;;;;10.63;1.88;;;17.50;99.90;;;;;;5068308;28;20171;-63
2022/10/07 12:44:11;;;;;;;8.20;1.80;;;17.50;99.90;;;;;;5088598;28;20398;-62
2022/10/07 12:46:36;;;;;;;9.82;2.45;;;17.60;99.90;;;;;;5089902;28;20032;-62
2022/10/07 12:49:23;;;;;;;8.10;2.17;;;17.70;99.90;;;;;;5090405;28;20475;-62
2022/10/07 12:51:52;;;;;;;11.57;2.10;;;17.80;99.90;;;;;;5087937;28;20035;-63
2022/10/07 12:54:23;;;;;;;9.55;1.75;;;17.70;99.90;;;;;;5080763;28;20491;-63
2022/10/07 12:56:49;;;;;;;8.60;1.83;;;17.70;99.80;;;;;;5081903;28;20052;-63
2022/10/07 13:00:06;;;;;;;10.00;1.70;;;17.80;99.90;;;;;;5061973;28;20093;-63
2022/10/07 13:02:54;;;;;;;7.85;2.20;;;17.80;99.10;;;;;;5056786;28;20113;-64
2022/10/07 13:05:38;;;;;;;6.20;1.73;;;17.90;99.10;;;;;;5061342;28;20069;-63
2022/10/07 13:08:35;;;;;;;8.15;1.85;;;17.90;98.60;;;;;;5080271;28;20478;-64
2022/10/07 13:11:38;;;;;;;5.18;1.63;;;17.90;98.70;;;;;;5081787;28;20101;-63
2022/10/07 13:14:19;;;;;;;8.73;1.98;;;17.90;99.10;;;;;;5074131;28;20077;-63
2022/10/07 13:16:59;;;;;;;;;;;18.00;99.40;;;;;;5079523;28;20044;-63
2022/10/07 13:19:25;;;;;;;;;;;17.90;98.50;;;;;;5083963;28;19923;-63
2022/10/07 13:22:14;;;;;;;8.45;1.70;;;17.70;98.20;;;;;;5037717;28;20338;-64